createdAt,value
2022-09-15T00:00:37.219Z,84.77
2022-09-15T00:03:09.234Z,84.47
2022-09-15T00:05:41.272Z,84.38
2022-09-15T00:08:13.803Z,84.68
2022-09-15T00:10:58.498Z,84.60
2022-09-15T00:13:30.377Z,84.78
2022-09-15T00:16:02.310Z,84.77
2022-09-15T00:18:35.516Z,84.93
2022-09-15T00:21:13.131Z,85.03
2022-09-15T00:23:45.751Z,85.00
2022-09-15T00:26:20.610Z,85.09
2022-09-15T00:28:53.250Z,85.15
2022-09-15T00:31:27.097Z,85.29
2022-09-15T00:34:02.297Z,85.30
2022-09-15T00:36:34.122Z,85.38
2022-09-15T00:39:06.803Z,85.29
2022-09-15T00:41:41.061Z,85.28
2022-09-15T00:44:22.012Z,85.30
2022-09-15T00:47:15.673Z,85.43
2022-09-15T00:49:34.049Z,85.40
2022-09-15T00:52:08.910Z,85.39
2022-09-15T00:54:49.469Z,85.42
2022-09-15T00:57:30.704Z,85.54
2022-09-15T01:00:05.062Z,85.54
2022-09-15T01:02:38.515Z,85.42
2022-09-15T01:05:13.119Z,85.23
2022-09-15T01:07:48.720Z,85.14
2022-09-15T01:10:26.077Z,85.57
2022-09-15T01:13:01.397Z,85.06
2022-09-15T01:15:55.604Z,84.97
2022-09-15T01:18:48.428Z,85.25
2022-09-15T01:21:41.464Z,85.13
2022-09-15T01:24:16.687Z,85.05
2022-09-15T01:27:30.601Z,85.09
2022-09-15T01:29:55.258Z,85.22
2022-09-15T01:32:47.710Z,85.22
2022-09-15T01:35:25.660Z,84.97
2022-09-15T01:38:03.500Z,84.96
2022-09-15T01:40:38.526Z,85.15
2022-09-15T01:43:12.412Z,84.91
2022-09-15T01:45:47.588Z,84.91
2022-09-15T01:48:22.424Z,85.08
2022-09-15T01:50:57.564Z,84.99
2022-09-15T01:53:30.115Z,85.01
2022-09-15T01:56:11.087Z,84.79
2022-09-15T01:58:43.210Z,84.79
2022-09-15T02:01:31.813Z,84.95
2022-09-15T02:04:10.027Z,84.90
2022-09-15T02:07:02.986Z,85.11
2022-09-15T02:09:37.782Z,84.96
2022-09-15T02:12:25.441Z,85.08
2022-09-15T02:15:02.028Z,84.88
2022-09-15T02:17:38.321Z,84.92
2022-09-15T02:20:29.683Z,84.97
2022-09-15T02:23:05.700Z,84.97
2022-09-15T02:25:43.679Z,85.03
2022-09-15T02:28:18.345Z,85.02
2022-09-15T02:30:50.071Z,85.17
2022-09-15T02:33:24.308Z,85.63
2022-09-15T02:35:56.898Z,84.80
2022-09-15T02:38:31.799Z,85.11
2022-09-15T02:41:05.276Z,85.17
2022-09-15T02:43:40.173Z,85.21
2022-09-15T02:46:12.368Z,84.96
2022-09-15T02:48:44.421Z,85.24
2022-09-15T02:51:18.036Z,85.37
2022-09-15T02:53:50.845Z,84.96
2022-09-15T02:56:22.860Z,85.46
2022-09-15T02:58:54.921Z,85.34
2022-09-15T03:01:34.109Z,85.11
2022-09-15T03:04:06.289Z,85.32
2022-09-15T03:06:38.303Z,85.50
2022-09-15T03:09:10.888Z,85.44
2022-09-15T03:11:43.002Z,85.71
2022-09-15T03:14:15.054Z,85.71
2022-09-15T03:16:47.679Z,85.31
2022-09-15T03:19:19.560Z,84.85
2022-09-15T03:21:52.142Z,85.16
2022-09-15T03:24:24.147Z,85.73
2022-09-15T03:26:56.198Z,85.73
2022-09-15T03:29:28.101Z,85.13
2022-09-15T03:31:59.974Z,85.13
2022-09-15T03:34:32.072Z,86.02
2022-09-15T03:37:04.155Z,86.04
2022-09-15T03:39:36.038Z,86.19
2022-09-15T03:42:10.021Z,85.51
2022-09-15T03:44:42.416Z,85.70
2022-09-15T03:47:14.386Z,85.89
2022-09-15T03:49:46.564Z,86.06
2022-09-15T03:52:18.878Z,86.06
2022-09-15T03:54:50.918Z,85.58
2022-09-15T03:57:22.892Z,85.58
2022-09-15T03:59:55.030Z,85.62
2022-09-15T04:02:27.348Z,85.62
2022-09-15T04:04:59.964Z,85.40
2022-09-15T04:07:33.255Z,85.33
2022-09-15T04:10:05.565Z,85.36
2022-09-15T04:12:38.155Z,85.10
2022-09-15T04:15:10.961Z,85.35
2022-09-15T04:17:42.974Z,85.61
2022-09-15T04:20:16.150Z,85.90
2022-09-15T04:22:48.584Z,85.90
2022-09-15T04:25:20.561Z,86.00
2022-09-15T04:27:53.021Z,85.68
2022-09-15T04:30:24.881Z,85.82
2022-09-15T04:32:56.896Z,86.05
2022-09-15T04:35:28.972Z,86.00
2022-09-15T04:38:00.942Z,86.00
2022-09-15T04:40:33.871Z,85.99
2022-09-15T04:43:06.861Z,85.79
2022-09-15T04:45:39.024Z,86.46
2022-09-15T04:48:11.698Z,86.53
2022-09-15T04:50:43.664Z,85.72
2022-09-15T04:53:16.155Z,85.98
2022-09-15T04:55:48.395Z,85.98
2022-09-15T04:58:20.758Z,85.70
2022-09-15T05:00:52.858Z,85.83
2022-09-15T05:03:25.002Z,85.83
2022-09-15T05:05:56.881Z,86.21
2022-09-15T05:08:30.594Z,85.54
2022-09-15T05:11:05.182Z,85.73
2022-09-15T05:13:38.651Z,85.17
2022-09-15T05:16:13.527Z,84.59
2022-09-15T05:18:47.064Z,84.40
2022-09-15T05:21:21.506Z,84.10
2022-09-15T05:23:54.703Z,84.24
2022-09-15T05:26:29.848Z,83.94
2022-09-15T05:29:02.001Z,84.00
2022-09-15T05:31:35.150Z,84.43
2022-09-15T05:34:07.604Z,84.09
2022-09-15T05:36:39.680Z,83.37
2022-09-15T05:39:11.737Z,83.59
2022-09-15T05:41:43.702Z,83.59
2022-09-15T05:44:15.638Z,83.20
2022-09-15T05:46:47.980Z,83.00
2022-09-15T05:49:20.522Z,82.63
2022-09-15T05:51:52.579Z,82.73
2022-09-15T05:54:24.676Z,82.50
2022-09-15T05:56:56.819Z,82.50
2022-09-15T05:59:28.904Z,82.27
2022-09-15T06:02:01.126Z,81.50
2022-09-15T06:04:34.325Z,81.58
2022-09-15T06:07:06.241Z,82.13
2022-09-15T06:09:39.510Z,82.28
2022-09-15T06:12:11.711Z,82.05
2022-09-15T06:14:44.940Z,82.07
2022-09-15T06:17:19.183Z,82.07
2022-09-15T06:19:51.468Z,82.07
2022-09-15T06:22:23.503Z,82.26
2022-09-15T06:24:55.654Z,82.26
2022-09-15T06:27:28.213Z,81.90
2022-09-15T06:30:00.415Z,81.86
2022-09-15T06:32:34.148Z,81.07
2022-09-15T06:35:07.380Z,80.81
2022-09-15T06:37:40.081Z,80.84
2022-09-15T06:40:12.523Z,79.76
2022-09-15T06:42:44.637Z,79.76
2022-09-15T06:45:17.090Z,79.96
2022-09-15T06:48:02.214Z,79.40
2022-09-15T06:50:23.400Z,79.40
2022-09-15T06:52:55.593Z,79.12
2022-09-15T06:55:28.475Z,78.78
2022-09-15T06:58:00.536Z,79.37
2022-09-15T07:00:32.885Z,78.52
2022-09-15T07:03:04.930Z,78.46
2022-09-15T07:05:37.045Z,78.31
2022-09-15T07:08:09.111Z,78.31
2022-09-15T07:10:42.684Z,78.39
2022-09-15T07:13:14.915Z,77.24
2022-09-15T07:15:58.946Z,77.80
2022-09-15T07:18:32.058Z,77.91
2022-09-15T07:21:07.526Z,77.91
2022-09-15T07:23:40.085Z,78.11
2022-09-15T07:26:29.430Z,77.46
2022-09-15T07:29:04.321Z,77.46
2022-09-15T07:31:38.908Z,78.20
2022-09-15T07:34:11.258Z,78.59
2022-09-15T07:36:43.322Z,77.10
2022-09-15T07:39:15.568Z,76.10
2022-09-15T07:41:48.041Z,76.10
2022-09-15T07:44:19.984Z,74.80
2022-09-15T07:46:52.264Z,73.73
2022-09-15T07:49:24.596Z,72.73
2022-09-15T07:51:56.780Z,71.91
2022-09-15T07:54:28.830Z,71.91
2022-09-15T07:57:00.891Z,71.68
2022-09-15T07:59:33.404Z,71.39
2022-09-15T08:02:05.458Z,71.79
2022-09-15T08:04:37.479Z,72.51
2022-09-15T08:07:09.350Z,72.09
2022-09-15T08:09:42.441Z,71.29
2022-09-15T08:12:14.317Z,70.90
2022-09-15T08:14:46.567Z,70.05
2022-09-15T08:17:18.706Z,69.95
2022-09-15T08:19:51.118Z,68.73
2022-09-15T08:22:23.133Z,68.93
2022-09-15T08:24:55.442Z,67.55
2022-09-15T08:27:27.373Z,66.69
2022-09-15T08:29:59.351Z,66.33
2022-09-15T08:32:33.297Z,66.32
2022-09-15T08:35:05.466Z,66.81
2022-09-15T08:37:37.429Z,64.40
2022-09-15T08:40:12.825Z,64.96
2022-09-15T08:42:46.170Z,64.75
2022-09-15T08:45:30.060Z,64.35
2022-09-15T08:48:04.531Z,64.40
2022-09-15T08:50:40.287Z,64.12
2022-09-15T08:53:27.641Z,64.55
2022-09-15T08:56:06.248Z,63.84
2022-09-15T08:58:38.887Z,62.95
2022-09-15T09:01:48.709Z,62.76
2022-09-15T09:04:29.601Z,62.58
2022-09-15T09:07:27.140Z,63.27
2022-09-15T09:10:25.924Z,64.11
2022-09-15T09:13:17.271Z,65.13
2022-09-15T09:16:07.159Z,65.09
2022-09-15T09:19:13.633Z,65.34
2022-09-15T09:21:51.921Z,66.27
2022-09-15T09:24:29.910Z,65.71
2022-09-15T09:27:01.992Z,65.27
2022-09-15T09:29:39.876Z,64.73
2022-09-15T09:32:25.075Z,64.61
2022-09-15T09:35:06.024Z,64.96
2022-09-15T09:37:38.386Z,66.02
2022-09-15T09:40:16.147Z,66.87
2022-09-15T09:42:48.274Z,67.10
2022-09-15T09:45:21.176Z,67.38
2022-09-15T09:47:57.228Z,68.19
2022-09-15T09:50:36.594Z,68.82
2022-09-15T09:53:33.836Z,69.04
2022-09-15T09:56:20.878Z,69.09
2022-09-15T09:58:54.339Z,68.87
2022-09-15T10:01:27.868Z,68.53
2022-09-15T10:04:15.066Z,68.24
2022-09-15T10:06:47.355Z,68.01
2022-09-15T10:09:20.685Z,68.69
2022-09-15T10:12:01.824Z,68.20
2022-09-15T10:14:36.857Z,67.96
2022-09-15T10:17:17.768Z,68.75
2022-09-15T10:19:55.512Z,68.54
2022-09-15T10:22:36.767Z,67.47
2022-09-15T10:25:39.483Z,66.97
2022-09-15T10:28:11.790Z,66.34
2022-09-15T10:31:15.035Z,66.84
2022-09-15T10:33:48.047Z,66.76
2022-09-15T10:36:31.934Z,67.10
2022-09-15T10:39:13.016Z,66.53
2022-09-15T10:41:51.340Z,67.14
2022-09-15T10:44:35.078Z,67.13
2022-09-15T10:47:19.179Z,66.79
2022-09-15T10:50:12.227Z,66.23
2022-09-15T10:52:55.930Z,65.00
2022-09-15T10:55:51.673Z,63.57
2022-09-15T10:58:45.148Z,63.44
2022-09-15T11:01:37.722Z,62.49
2022-09-15T11:04:21.811Z,61.98
2022-09-15T11:07:20.983Z,62.32
2022-09-15T11:09:58.849Z,62.91
2022-09-15T11:12:46.611Z,63.90
2022-09-15T11:15:24.516Z,64.08
2022-09-15T11:18:32.625Z,64.39
2022-09-15T11:21:28.890Z,65.06
2022-09-15T11:24:31.384Z,65.74
2022-09-15T11:27:30.540Z,66.46
2022-09-15T11:30:08.858Z,66.21
2022-09-15T11:32:44.945Z,67.05
2022-09-15T11:35:39.106Z,66.99
2022-09-15T11:38:42.929Z,67.75
2022-09-15T11:41:18.134Z,68.05
2022-09-15T11:43:56.542Z,68.26
2022-09-15T11:46:34.675Z,68.56
2022-09-15T11:49:18.914Z,67.77
2022-09-15T11:52:18.898Z,69.35
2022-09-15T11:55:03.061Z,69.38
2022-09-15T11:57:43.844Z,70.60
2022-09-15T12:00:17.211Z,70.51
2022-09-15T12:03:11.343Z,70.47
2022-09-15T12:06:02.788Z,70.66
2022-09-15T12:08:40.270Z,70.09
2022-09-15T12:11:17.907Z,70.11
2022-09-15T12:13:50.765Z,70.11
2022-09-15T12:16:24.184Z,70.08
2022-09-15T12:19:14.593Z,69.54
2022-09-15T12:22:01.417Z,67.49
2022-09-15T12:24:46.161Z,66.34
2022-09-15T12:27:20.849Z,66.03
2022-09-15T12:29:55.265Z,65.33
2022-09-15T12:32:33.816Z,64.84
2022-09-15T12:35:18.038Z,65.29
2022-09-15T12:37:54.938Z,65.74
2022-09-15T12:40:36.255Z,66.04
2022-09-15T12:43:20.146Z,64.88
2022-09-15T12:45:58.562Z,64.24
2022-09-15T12:48:33.613Z,63.75
2022-09-15T12:51:10.150Z,63.81
2022-09-15T12:53:58.310Z,63.45
2022-09-15T12:56:33.868Z,63.65
2022-09-15T12:59:08.210Z,63.33
2022-09-15T13:01:51.814Z,63.09
2022-09-15T13:04:44.781Z,63.04
2022-09-15T13:07:19.826Z,62.43
2022-09-15T13:10:17.227Z,61.90
2022-09-15T13:12:55.645Z,61.45
2022-09-15T13:15:30.157Z,61.38
2022-09-15T13:18:05.118Z,61.30
2022-09-15T13:20:40.494Z,61.69
2022-09-15T13:23:15.379Z,61.63
2022-09-15T13:25:49.319Z,60.62
2022-09-15T13:28:22.718Z,59.88
2022-09-15T13:31:04.134Z,59.38
2022-09-15T13:39:34.869Z,60.99
2022-09-15T13:42:25.101Z,61.13
2022-09-15T13:45:15.428Z,61.21
2022-09-15T13:47:50.738Z,62.04
2022-09-15T13:50:37.685Z,62.38
2022-09-15T13:53:15.620Z,62.27
2022-09-15T13:55:48.632Z,62.59
2022-09-15T14:01:06.950Z,63.59
2022-09-15T14:03:42.043Z,63.73
2022-09-15T14:06:23.557Z,63.50
2022-09-15T14:08:58.730Z,61.71
2022-09-15T14:11:33.894Z,61.29
2022-09-15T14:14:09.309Z,61.95
2022-09-15T14:16:42.795Z,61.97
2022-09-15T14:19:37.293Z,62.03
2022-09-15T14:22:25.603Z,62.03
2022-09-15T14:24:59.419Z,61.91
2022-09-15T14:27:35.868Z,62.23
2022-09-15T14:30:10.534Z,62.24
2022-09-15T14:32:46.260Z,62.97
2022-09-15T14:35:21.848Z,63.12
2022-09-15T14:38:01.081Z,63.72
2022-09-15T14:40:39.489Z,64.10
2022-09-15T14:43:29.543Z,64.52
2022-09-15T14:46:18.038Z,65.04
2022-09-15T14:48:50.677Z,65.85
2022-09-15T14:51:32.061Z,65.82
2022-09-15T14:54:06.740Z,66.51
2022-09-15T14:56:39.306Z,66.67
2022-09-15T14:59:19.829Z,66.48
2022-09-15T15:02:03.752Z,66.53
2022-09-15T15:04:39.321Z,66.82
2022-09-15T15:07:22.949Z,66.63
2022-09-15T15:10:01.114Z,66.31
2022-09-15T15:12:40.384Z,65.97
2022-09-15T15:15:17.211Z,66.36
2022-09-15T15:17:58.652Z,66.28
2022-09-15T15:20:33.512Z,67.25
2022-09-15T15:23:17.675Z,67.41
2022-09-15T15:25:50.571Z,67.48
2022-09-15T15:28:34.637Z,67.38
2022-09-15T15:31:22.067Z,67.13
2022-09-15T15:34:03.565Z,66.93
2022-09-15T15:36:37.184Z,66.93
2022-09-15T15:39:11.179Z,66.70
2022-09-15T15:41:44.929Z,66.17
2022-09-15T15:44:19.951Z,65.95
2022-09-15T15:46:55.885Z,65.99
2022-09-15T15:49:30.576Z,65.46
2022-09-15T15:52:03.955Z,65.65
2022-09-15T15:54:36.292Z,65.52
2022-09-15T15:57:30.435Z,65.21
2022-09-15T16:00:03.237Z,64.81
2022-09-15T16:02:35.283Z,65.81
2022-09-15T16:05:07.781Z,66.25
2022-09-15T16:07:40.739Z,66.36
2022-09-15T16:10:16.247Z,67.12
2022-09-15T16:12:48.424Z,67.40
2022-09-15T16:15:22.361Z,68.21
2022-09-15T16:17:54.584Z,68.18
2022-09-15T16:20:28.350Z,68.69
2022-09-15T16:23:01.790Z,69.44
2022-09-15T16:25:37.212Z,69.54
2022-09-15T16:28:10.167Z,69.65
2022-09-15T16:30:42.639Z,69.82
2022-09-15T16:33:16.861Z,70.37
2022-09-15T16:35:56.403Z,70.37
2022-09-15T16:38:28.559Z,70.07
2022-09-15T16:41:01.503Z,70.69
2022-09-15T16:43:33.468Z,71.17
2022-09-15T16:46:07.800Z,71.59
2022-09-15T16:48:41.327Z,72.10
2022-09-15T16:51:25.207Z,72.25
2022-09-15T16:53:54.434Z,72.47
2022-09-15T16:56:27.109Z,73.54
2022-09-15T16:59:00.864Z,73.37
2022-09-15T17:01:33.708Z,74.45
2022-09-15T17:04:12.784Z,74.46
2022-09-15T17:06:48.366Z,74.42
2022-09-15T17:09:20.873Z,74.75
2022-09-15T17:11:54.991Z,75.37
2022-09-15T17:14:27.655Z,75.45
2022-09-15T17:16:59.843Z,75.09
2022-09-15T17:19:32.577Z,75.21
2022-09-15T17:22:04.929Z,74.83
2022-09-15T17:24:37.488Z,74.92
2022-09-15T17:27:09.852Z,75.03
2022-09-15T17:29:42.578Z,75.19
2022-09-15T17:32:14.696Z,75.29
2022-09-15T17:34:47.522Z,75.51
2022-09-15T17:37:20.927Z,75.74
2022-09-15T17:39:58.800Z,76.02
2022-09-15T17:42:28.545Z,76.17
2022-09-15T17:45:01.867Z,76.38
2022-09-15T17:47:34.322Z,76.52
2022-09-15T17:50:06.910Z,76.50
2022-09-15T17:52:40.698Z,76.50
2022-09-15T17:55:21.533Z,76.62
2022-09-15T17:57:53.884Z,77.04
2022-09-15T18:00:28.956Z,77.18
2022-09-15T18:03:03.590Z,77.17
2022-09-15T18:05:39.727Z,77.13
2022-09-15T18:08:12.425Z,77.40
2022-09-15T18:10:46.761Z,77.71
2022-09-15T18:13:21.644Z,77.97
2022-09-15T18:15:54.808Z,78.15
2022-09-15T18:18:29.018Z,78.16
2022-09-15T18:21:04.308Z,78.26
2022-09-15T18:23:37.536Z,77.79
2022-09-15T18:26:09.687Z,77.54
2022-09-15T18:28:42.091Z,78.22
2022-09-15T18:31:17.700Z,78.26
2022-09-15T18:33:51.105Z,78.51
2022-09-15T18:36:23.337Z,78.60
2022-09-15T18:38:55.442Z,78.91
2022-09-15T18:41:28.575Z,78.45
2022-09-15T18:44:00.637Z,78.21
2022-09-15T18:46:34.113Z,77.99
2022-09-15T18:49:08.919Z,77.98
2022-09-15T18:51:57.550Z,77.84
2022-09-15T18:54:16.035Z,77.72
2022-09-15T18:56:48.867Z,77.68
2022-09-15T18:59:21.416Z,77.74
2022-09-15T19:01:53.473Z,78.00
2022-09-15T19:04:31.065Z,78.31
2022-09-15T19:06:59.317Z,78.31
2022-09-15T19:09:31.674Z,78.47
2022-09-15T19:12:04.857Z,78.42
2022-09-15T19:14:37.117Z,78.37
2022-09-15T19:17:10.467Z,78.40
2022-09-15T19:19:43.058Z,78.34
2022-09-15T19:22:15.128Z,78.39
2022-09-15T19:24:47.309Z,78.68
2022-09-15T19:27:19.560Z,78.72
2022-09-15T19:29:52.342Z,78.95
2022-09-15T19:32:24.455Z,79.25
2022-09-15T19:34:56.499Z,79.39
2022-09-15T19:37:28.627Z,79.51
2022-09-15T19:40:01.213Z,79.42
2022-09-15T19:42:33.631Z,79.51
2022-09-15T19:45:06.566Z,79.56
2022-09-15T19:47:40.068Z,79.57
2022-09-15T19:50:12.640Z,79.63
2022-09-15T19:52:44.722Z,79.56
2022-09-15T19:55:18.248Z,79.54
2022-09-15T19:57:50.120Z,79.56
2022-09-15T20:00:22.044Z,79.60
2022-09-15T20:02:54.225Z,79.73
2022-09-15T20:05:26.366Z,79.81
2022-09-15T20:07:59.816Z,79.85
2022-09-15T20:10:31.719Z,80.21
2022-09-15T20:13:03.735Z,80.39
2022-09-15T20:15:36.056Z,80.67
2022-09-15T20:18:09.826Z,80.84
2022-09-15T20:20:41.960Z,80.94
2022-09-15T20:23:15.328Z,81.05
2022-09-15T20:26:01.359Z,81.17
2022-09-15T20:28:33.894Z,81.04
2022-09-15T20:31:11.643Z,81.03
2022-09-15T20:33:45.841Z,81.09
2022-09-15T20:36:21.683Z,81.17
2022-09-15T20:38:54.799Z,81.33
2022-09-15T20:41:28.590Z,81.30
2022-09-15T20:44:01.054Z,81.54
2022-09-15T20:46:33.644Z,81.68
2022-09-15T20:49:06.127Z,82.12
2022-09-15T20:51:38.049Z,82.41
2022-09-15T20:54:11.502Z,82.52
2022-09-15T20:56:43.492Z,82.63
2022-09-15T20:59:15.556Z,82.75
2022-09-15T21:01:47.601Z,82.98
2022-09-15T21:04:20.729Z,82.94
2022-09-15T21:06:52.807Z,83.02
2022-09-15T21:09:25.000Z,83.00
2022-09-15T21:11:57.120Z,83.09
2022-09-15T21:14:29.363Z,83.18
2022-09-15T21:17:01.418Z,83.19
2022-09-15T21:19:33.495Z,83.01
2022-09-15T21:22:05.451Z,82.95
2022-09-15T21:24:37.259Z,82.94
2022-09-15T21:27:27.501Z,82.94
2022-09-15T21:29:59.557Z,82.99
2022-09-15T21:32:34.063Z,83.02
2022-09-15T21:35:07.543Z,83.08
2022-09-15T21:37:39.424Z,83.24
2022-09-15T21:40:13.116Z,83.37
2022-09-15T21:42:45.292Z,83.47
2022-09-15T21:45:17.270Z,83.52
2022-09-15T21:47:49.319Z,83.66
2022-09-15T21:50:21.267Z,83.62
2022-09-15T21:52:53.180Z,83.88
2022-09-15T21:55:25.832Z,84.00
2022-09-15T21:57:57.967Z,84.10
2022-09-15T22:00:30.247Z,84.23
2022-09-15T22:03:02.215Z,84.19
2022-09-15T22:05:34.718Z,84.06
2022-09-15T22:08:08.638Z,84.03
2022-09-15T22:10:42.136Z,83.92
2022-09-15T22:13:14.415Z,83.91
2022-09-15T22:15:46.326Z,83.77
2022-09-15T22:18:18.405Z,83.89
2022-09-15T22:20:51.930Z,83.87
2022-09-15T22:23:24.104Z,83.75
2022-09-15T22:25:56.148Z,83.75
2022-09-15T22:28:28.112Z,83.62
2022-09-15T22:31:01.499Z,83.59
2022-09-15T22:33:34.177Z,83.42
2022-09-15T22:36:06.343Z,83.40
2022-09-15T22:38:38.758Z,83.54
2022-09-15T22:41:13.427Z,83.64
2022-09-15T22:43:47.984Z,83.63
2022-09-15T22:46:21.124Z,83.65
2022-09-15T22:48:53.653Z,83.35
2022-09-15T22:51:26.017Z,83.46
2022-09-15T22:53:58.474Z,83.33
2022-09-15T22:56:30.644Z,83.45
2022-09-15T22:59:02.900Z,83.56
2022-09-15T23:01:34.900Z,83.58
2022-09-15T23:04:06.957Z,83.67
2022-09-15T23:06:38.935Z,83.82
2022-09-15T23:09:12.606Z,83.98
2022-09-15T23:11:44.570Z,84.16
2022-09-15T23:14:18.194Z,84.22
2022-09-15T23:16:50.178Z,84.37
2022-09-15T23:19:22.707Z,84.53
2022-09-15T23:21:54.548Z,84.60
2022-09-15T23:24:26.448Z,84.61
2022-09-15T23:26:58.543Z,84.71
2022-09-15T23:29:30.400Z,84.58
2022-09-15T23:32:02.234Z,84.91
2022-09-15T23:34:34.050Z,84.94
2022-09-15T23:37:06.090Z,85.02
2022-09-15T23:39:38.048Z,85.16
2022-09-15T23:42:10.098Z,85.16
2022-09-15T23:44:43.101Z,85.32
2022-09-15T23:47:14.939Z,85.36
2022-09-15T23:49:47.079Z,85.53
2022-09-15T23:52:19.089Z,85.43
2022-09-15T23:54:50.981Z,85.48
2022-09-15T23:57:22.957Z,85.64
2022-09-15T23:59:54.750Z,85.81
